createdAt,value
2019-02-09T00:01:25.012Z,86.16
2019-02-09T00:04:14.931Z,86.14
2019-02-09T00:07:04.726Z,86.36
2019-02-09T00:09:45.448Z,86.66
2019-02-09T00:12:35.052Z,85.14
2019-02-09T00:15:24.621Z,85.65
2019-02-09T00:18:15.841Z,86.40
2019-02-09T00:21:05.510Z,84.76
2019-02-09T00:23:55.158Z,84.13
2019-02-09T00:26:35.259Z,84.54
2019-02-09T00:29:24.641Z,84.26
2019-02-09T00:32:13.871Z,84.39
2019-02-09T00:35:03.473Z,83.64
2019-02-09T00:37:53.208Z,83.83
2019-02-09T00:40:45.073Z,82.15
2019-02-09T00:43:34.595Z,81.39
2019-02-09T00:46:24.303Z,80.70
2019-02-09T00:49:13.799Z,79.52
2019-02-09T00:52:03.468Z,79.02
2019-02-09T00:54:54.087Z,79.59
2019-02-09T00:57:43.663Z,79.76
2019-02-09T01:00:33.604Z,78.81
2019-02-09T01:03:23.281Z,78.95
2019-02-09T01:06:12.594Z,79.59
2019-02-09T01:08:42.964Z,79.59
2019-02-09T01:11:32.253Z,79.46
2019-02-09T01:14:21.694Z,79.28
2019-02-09T01:17:26.539Z,78.90
2019-02-09T01:20:02.373Z,79.40
2019-02-09T01:22:52.458Z,78.34
2019-02-09T01:25:41.789Z,78.02
2019-02-09T01:28:23.500Z,76.96
2019-02-09T01:31:05.164Z,76.71
2019-02-09T01:33:47.141Z,77.25
2019-02-09T01:36:28.361Z,77.71
2019-02-09T01:39:10.064Z,77.18
2019-02-09T01:41:50.099Z,76.23
2019-02-09T01:45:02.528Z,74.36
2019-02-09T01:47:51.798Z,74.10
2019-02-09T01:50:41.147Z,72.63
2019-02-09T01:53:30.797Z,71.96
2019-02-09T01:56:01.162Z,72.16
2019-02-09T01:58:50.819Z,71.32
2019-02-09T02:01:40.395Z,71.35
2019-02-09T02:04:29.651Z,71.92
2019-02-09T02:07:19.420Z,70.28
2019-02-09T02:10:10.733Z,71.32
2019-02-09T02:13:00.636Z,69.56
2019-02-09T02:15:50.192Z,69.27
2019-02-09T02:18:31.829Z,70.56
2019-02-09T02:21:13.142Z,69.29
2019-02-09T02:23:55.507Z,68.53
2019-02-09T02:26:37.174Z,66.72
2019-02-09T02:32:08.464Z,64.59
2019-02-09T02:34:50.334Z,66.42
2019-02-09T02:37:31.806Z,65.59
2019-02-09T02:40:13.786Z,64.21
2019-02-09T02:42:55.478Z,63.44
2019-02-09T02:45:36.998Z,65.02
2019-02-09T02:48:18.637Z,65.04
2019-02-09T02:51:00.663Z,65.57
2019-02-09T02:53:42.238Z,63.76
2019-02-09T02:56:24.848Z,62.87
2019-02-09T02:59:06.278Z,63.54
2019-02-09T03:01:48.103Z,62.62
2019-02-09T03:04:29.517Z,63.42
2019-02-09T03:07:10.339Z,64.57
2019-02-09T03:10:18.517Z,64.53
2019-02-09T03:13:28.418Z,62.42
2019-02-09T03:16:18.296Z,63.17
2019-02-09T03:19:00.277Z,63.43
2019-02-09T03:21:42.287Z,62.85
2019-02-09T03:24:13.513Z,64.17
2019-02-09T03:27:02.730Z,63.86
2019-02-09T03:29:33.419Z,62.02
2019-02-09T03:32:23.119Z,63.21
2019-02-09T03:35:12.900Z,62.15
2019-02-09T03:37:43.389Z,61.34
2019-02-09T03:40:32.997Z,60.91
2019-02-09T03:43:22.336Z,59.46
2019-02-09T03:46:12.299Z,59.38
2019-02-09T03:49:01.892Z,58.87
2019-02-09T03:51:51.162Z,58.36
2019-02-09T03:54:22.510Z,58.62
2019-02-09T03:57:12.609Z,58.48
2019-02-09T04:00:02.238Z,59.07
2019-02-09T04:02:51.873Z,59.61
2019-02-09T04:05:41.158Z,61.33
2019-02-09T04:08:30.759Z,63.19
2019-02-09T04:11:19.995Z,64.85
2019-02-09T04:14:09.681Z,66.27
2019-02-09T04:16:40.029Z,67.67
2019-02-09T04:19:29.486Z,69.71
2019-02-09T04:22:19.153Z,71.64
2019-02-09T04:25:09.478Z,73.22
2019-02-09T04:27:59.077Z,73.55
2019-02-09T04:30:48.803Z,73.73
2019-02-09T04:33:38.389Z,73.30
2019-02-09T04:37:02.313Z,73.51
2019-02-09T04:39:51.773Z,72.92
2019-02-09T04:42:41.378Z,74.95
2019-02-09T04:45:30.751Z,77.62
2019-02-09T04:48:20.382Z,78.63
2019-02-09T04:51:09.930Z,78.90
2019-02-09T04:53:40.147Z,78.83
2019-02-09T04:56:10.382Z,79.50
2019-02-09T04:58:47.963Z,78.74
2019-02-09T05:01:18.158Z,79.44
2019-02-09T05:04:07.748Z,78.94
2019-02-09T05:06:57.008Z,78.09
2019-02-09T05:09:46.898Z,78.44
2019-02-09T05:12:36.184Z,77.65
2019-02-09T05:15:25.758Z,77.60
2019-02-09T05:18:16.190Z,77.89
2019-02-09T05:20:57.753Z,77.79
2019-02-09T05:23:28.665Z,77.15
2019-02-09T05:26:17.980Z,77.51
2019-02-09T05:28:48.334Z,77.19
2019-02-09T05:31:37.708Z,77.03
2019-02-09T05:34:27.433Z,77.49
2019-02-09T05:37:17.012Z,77.57
2019-02-09T05:40:06.524Z,78.01
2019-02-09T05:42:56.317Z,78.08
2019-02-09T05:45:45.945Z,78.36
2019-02-09T05:48:16.304Z,78.53
2019-02-09T05:51:06.127Z,78.78
2019-02-09T05:56:33.013Z,78.93
2019-02-09T05:59:22.272Z,79.45
2019-02-09T06:01:52.904Z,79.65
2019-02-09T06:04:42.266Z,80.08
2019-02-09T06:07:13.065Z,80.41
2019-02-09T06:09:43.364Z,80.50
2019-02-09T06:12:16.141Z,81.12
2019-02-09T06:14:47.413Z,81.16
2019-02-09T06:17:17.784Z,80.87
2019-02-09T06:20:07.501Z,80.73
2019-02-09T06:22:57.486Z,80.67
2019-02-09T06:25:47.091Z,80.19
2019-02-09T06:28:36.623Z,80.31
2019-02-09T06:31:25.977Z,80.52
2019-02-09T06:34:15.810Z,79.85
2019-02-09T06:37:05.415Z,79.62
2019-02-09T06:39:54.836Z,79.93
2019-02-09T06:42:44.514Z,80.28
2019-02-09T06:45:34.055Z,79.90
2019-02-09T06:48:24.752Z,79.53
2019-02-09T06:51:16.714Z,79.01
2019-02-09T06:54:06.064Z,79.04
2019-02-09T06:56:56.001Z,79.02
2019-02-09T06:59:26.277Z,78.42
2019-02-09T07:02:15.893Z,79.07
2019-02-09T07:05:24.997Z,79.79
2019-02-09T07:08:14.487Z,79.77
2019-02-09T07:14:13.968Z,79.25
2019-02-09T07:17:03.804Z,78.93
2019-02-09T07:19:53.426Z,78.46
2019-02-09T07:22:35.097Z,78.09
2019-02-09T07:25:16.845Z,77.64
2019-02-09T07:27:57.559Z,76.55
2019-02-09T07:30:47.039Z,75.38
2019-02-09T07:33:36.387Z,75.16
2019-02-09T07:36:16.970Z,74.90
2019-02-09T07:39:09.108Z,74.35
2019-02-09T07:41:58.369Z,74.06
2019-02-09T07:44:47.663Z,74.57
2019-02-09T07:47:37.881Z,75.43
2019-02-09T07:50:27.381Z,75.78
2019-02-09T07:53:16.707Z,76.05
2019-02-09T07:56:06.489Z,75.89
2019-02-09T08:01:48.789Z,76.21
2019-02-09T08:04:48.602Z,76.67
2019-02-09T08:07:18.983Z,77.02
2019-02-09T08:10:10.221Z,76.48
2019-02-09T08:13:00.239Z,76.53
2019-02-09T08:15:31.477Z,76.15
2019-02-09T08:18:21.203Z,75.90
2019-02-09T08:21:03.101Z,76.17
2019-02-09T08:23:44.665Z,76.08
2019-02-09T08:29:07.578Z,75.65
2019-02-09T08:31:38.158Z,75.16
2019-02-09T08:34:27.658Z,74.92
2019-02-09T08:37:07.714Z,74.88
2019-02-09T08:43:07.935Z,73.68
2019-02-09T08:45:57.574Z,73.51
2019-02-09T08:48:46.912Z,72.99
2019-02-09T08:51:21.661Z,71.45
2019-02-09T08:54:12.059Z,70.10
2019-02-09T08:56:42.245Z,69.67
2019-02-09T08:59:31.862Z,70.37
2019-02-09T09:02:06.676Z,70.07
2019-02-09T09:04:36.991Z,69.71
2019-02-09T09:07:37.571Z,68.65
2019-02-09T09:10:24.940Z,67.78
2019-02-09T09:13:14.641Z,66.54
2019-02-09T09:15:55.119Z,65.24
2019-02-09T09:21:20.404Z,64.44
2019-02-09T09:23:55.769Z,63.98
2019-02-09T09:26:44.622Z,64.45
2019-02-09T09:29:15.607Z,64.43
2019-02-09T09:31:46.517Z,65.17
2019-02-09T09:34:44.558Z,65.30
2019-02-09T09:40:13.477Z,65.84
2019-02-09T09:42:46.500Z,65.56
2019-02-09T09:45:19.655Z,65.40
2019-02-09T09:47:50.337Z,65.06
2019-02-09T09:50:22.117Z,63.95
2019-02-09T09:52:52.748Z,62.30
2019-02-09T09:55:42.281Z,61.84
2019-02-09T09:58:33.634Z,62.42
2019-02-09T10:01:03.934Z,63.45
2019-02-09T10:03:34.172Z,64.17
2019-02-09T10:06:23.642Z,65.12
2019-02-09T10:08:54.156Z,66.82
2019-02-09T10:11:24.424Z,69.39
2019-02-09T10:13:54.629Z,71.05
2019-02-09T10:16:44.134Z,71.54
2019-02-09T10:19:14.452Z,71.41
2019-02-09T10:22:03.861Z,70.22
2019-02-09T10:24:53.704Z,67.91
2019-02-09T10:27:35.425Z,67.21
2019-02-09T10:33:00.417Z,64.59
2019-02-09T10:35:58.159Z,64.23
2019-02-09T10:38:49.752Z,63.93
2019-02-09T10:41:20.474Z,63.46
2019-02-09T10:44:09.853Z,62.59
2019-02-09T10:46:59.442Z,61.76
2019-02-09T10:49:48.942Z,60.71
2019-02-09T10:52:22.198Z,60.98
2019-02-09T10:55:11.761Z,61.40
2019-02-09T10:57:48.070Z,61.89
2019-02-09T11:00:42.277Z,62.22
2019-02-09T11:03:13.115Z,61.37
2019-02-09T11:05:44.771Z,61.19
2019-02-09T11:08:34.890Z,60.86
2019-02-09T11:11:24.102Z,61.57
2019-02-09T11:14:13.733Z,61.99
2019-02-09T11:17:03.488Z,61.86
2019-02-09T11:19:53.138Z,60.95
2019-02-09T11:22:34.589Z,60.85
2019-02-09T11:27:59.321Z,59.02
2019-02-09T11:30:41.535Z,58.71
2019-02-09T11:33:22.732Z,58.47
2019-02-09T11:38:45.816Z,57.55
2019-02-09T11:41:20.036Z,58.34
2019-02-09T11:43:50.651Z,58.31
2019-02-09T11:46:21.120Z,58.72
2019-02-09T11:48:51.482Z,57.71
2019-02-09T11:51:21.778Z,57.89
2019-02-09T11:54:13.449Z,58.41
2019-02-09T11:56:45.455Z,59.73
2019-02-09T11:59:38.393Z,60.25
2019-02-09T12:02:27.745Z,64.36
2019-02-09T12:05:17.267Z,63.65
2019-02-09T12:07:51.606Z,62.56
2019-02-09T12:10:40.942Z,62.15
2019-02-09T12:13:11.254Z,61.85
2019-02-09T12:16:00.557Z,61.69
2019-02-09T12:18:50.282Z,61.65
2019-02-09T12:21:39.865Z,61.14
2019-02-09T12:24:21.272Z,61.55
2019-02-09T12:27:02.868Z,60.85
2019-02-09T12:29:33.509Z,61.02
2019-02-09T12:32:23.218Z,60.45
2019-02-09T12:35:13.533Z,60.64
2019-02-09T12:37:43.814Z,60.01
2019-02-09T12:40:21.228Z,59.71
2019-02-09T12:42:51.855Z,59.76
2019-02-09T12:45:23.096Z,60.27
2019-02-09T12:48:12.682Z,59.34
2019-02-09T12:50:43.616Z,58.91
2019-02-09T12:53:32.992Z,57.73
2019-02-09T12:56:03.473Z,57.97
2019-02-09T12:58:34.616Z,57.00
2019-02-09T13:01:24.353Z,56.50
2019-02-09T13:04:13.849Z,56.89
2019-02-09T13:07:07.581Z,56.74
2019-02-09T13:09:57.227Z,56.37
2019-02-09T13:12:55.799Z,56.45
2019-02-09T13:15:47.226Z,56.61
2019-02-09T13:18:38.486Z,56.08
2019-02-09T13:21:10.329Z,56.31
2019-02-09T13:23:41.616Z,56.33
2019-02-09T13:26:12.676Z,56.51
2019-02-09T13:28:43.290Z,56.95
2019-02-09T13:31:17.671Z,57.01
2019-02-09T13:34:08.540Z,57.48
2019-02-09T13:36:57.939Z,57.26
2019-02-09T13:39:47.567Z,57.04
2019-02-09T13:42:36.886Z,57.30
2019-02-09T13:45:15.356Z,57.99
2019-02-09T13:48:06.264Z,57.54
2019-02-09T13:50:55.529Z,57.65
2019-02-09T13:53:26.052Z,58.08
2019-02-09T13:55:56.490Z,57.69
2019-02-09T13:58:28.044Z,57.85
2019-02-09T14:01:20.629Z,57.65
2019-02-09T14:07:06.143Z,57.85
2019-02-09T14:09:45.648Z,58.15
2019-02-09T14:12:35.243Z,58.27
2019-02-09T14:15:27.852Z,58.58
2019-02-09T14:18:19.490Z,58.44
2019-02-09T14:21:09.016Z,58.64
2019-02-09T14:24:02.481Z,59.25
2019-02-09T14:26:32.973Z,59.82
2019-02-09T14:29:03.902Z,60.00
2019-02-09T14:31:48.484Z,60.05
2019-02-09T14:34:29.505Z,60.68
2019-02-09T14:36:59.856Z,60.57
2019-02-09T14:39:30.379Z,60.37
2019-02-09T14:42:00.709Z,60.83
2019-02-09T14:44:32.089Z,60.96
2019-02-09T14:47:05.490Z,61.16
2019-02-09T14:52:17.473Z,60.70
2019-02-09T14:54:48.000Z,60.58
2019-02-09T14:57:38.658Z,60.47
2019-02-09T15:00:29.912Z,60.26
2019-02-09T15:03:27.237Z,60.47
2019-02-09T15:05:54.656Z,60.19
2019-02-09T15:08:47.012Z,60.38
2019-02-09T15:11:17.482Z,60.24
2019-02-09T15:14:07.013Z,60.15
2019-02-09T15:19:53.666Z,60.55
2019-02-09T15:22:24.221Z,60.18
2019-02-09T15:24:56.814Z,59.78
2019-02-09T15:27:38.785Z,59.91
2019-02-09T15:30:20.985Z,59.98
2019-02-09T15:32:52.131Z,59.54
2019-02-09T15:35:41.714Z,59.92
2019-02-09T15:38:31.113Z,59.84
2019-02-09T15:41:20.726Z,59.89
2019-02-09T15:44:10.071Z,60.16
2019-02-09T15:46:40.724Z,60.00
2019-02-09T15:49:30.468Z,60.07
2019-02-09T15:52:19.970Z,60.04
2019-02-09T15:55:10.360Z,60.11
2019-02-09T15:57:59.681Z,60.52
2019-02-09T16:01:09.239Z,60.84
2019-02-09T16:03:39.534Z,61.05
2019-02-09T16:06:29.087Z,61.17
2019-02-09T16:08:59.404Z,61.43
2019-02-09T16:11:29.682Z,61.70
2019-02-09T16:14:01.828Z,61.68
2019-02-09T16:16:32.061Z,61.80
2019-02-09T16:19:13.429Z,62.21
2019-02-09T16:21:44.235Z,62.80
2019-02-09T16:24:34.129Z,61.99
2019-02-09T16:27:23.487Z,61.91
2019-02-09T16:29:53.793Z,62.58
2019-02-09T16:32:24.343Z,63.15
2019-02-09T16:35:15.631Z,62.30
2019-02-09T16:38:05.377Z,61.63
2019-02-09T16:40:47.174Z,61.96
2019-02-09T16:43:37.868Z,61.77
2019-02-09T16:46:28.789Z,62.09
2019-02-09T16:49:18.410Z,61.82
2019-02-09T16:52:07.715Z,62.79
2019-02-09T16:54:57.500Z,63.08
2019-02-09T16:57:27.874Z,62.58
2019-02-09T17:00:21.400Z,62.71
2019-02-09T17:03:11.238Z,62.47
2019-02-09T17:06:01.375Z,63.39
2019-02-09T17:08:51.466Z,63.83
2019-02-09T17:11:41.154Z,63.29
2019-02-09T17:17:30.361Z,62.56
2019-02-09T17:20:20.793Z,62.67
2019-02-09T17:22:53.654Z,63.60
2019-02-09T17:25:27.371Z,64.00
2019-02-09T17:28:19.830Z,62.25
2019-02-09T17:30:53.676Z,61.86
2019-02-09T17:33:27.086Z,61.36
2019-02-09T17:35:58.692Z,61.15
2019-02-09T17:38:30.530Z,61.52
2019-02-09T17:41:03.707Z,60.14
2019-02-09T17:43:37.332Z,59.79
2019-02-09T17:46:16.332Z,61.07
2019-02-09T17:49:10.267Z,60.09
2019-02-09T17:51:44.559Z,60.66
2019-02-09T17:54:15.793Z,60.86
2019-02-09T17:57:06.428Z,59.76
2019-02-09T17:59:53.852Z,59.57
2019-02-09T18:02:31.441Z,59.15
2019-02-09T18:05:22.187Z,59.93
2019-02-09T18:08:12.508Z,58.87
2019-02-09T18:10:44.304Z,59.60
2019-02-09T18:13:15.809Z,60.25
2019-02-09T18:15:47.364Z,59.40
2019-02-09T18:18:18.719Z,60.04
2019-02-09T18:20:50.457Z,60.99
2019-02-09T18:23:22.598Z,60.83
2019-02-09T18:25:53.651Z,60.84
2019-02-09T18:28:43.477Z,61.75
2019-02-09T18:31:33.280Z,61.46
2019-02-09T18:34:23.517Z,61.78
2019-02-09T18:40:19.078Z,62.21
2019-02-09T18:43:26.927Z,62.75
2019-02-09T18:46:17.405Z,63.75
2019-02-09T18:49:08.383Z,64.06
2019-02-09T18:51:41.355Z,65.43
2019-02-09T18:54:32.160Z,65.01
2019-02-09T18:57:22.786Z,65.03
2019-02-09T19:00:13.886Z,64.80
2019-02-09T19:03:04.000Z,64.80
2019-02-09T19:05:55.981Z,65.20
2019-02-09T19:08:47.190Z,65.47
2019-02-09T19:11:56.536Z,64.39
2019-02-09T19:14:30.508Z,65.48
2019-02-09T19:17:20.877Z,66.11
2019-02-09T19:20:12.795Z,66.83
2019-02-09T19:22:44.967Z,65.95
2019-02-09T19:25:35.411Z,66.26
2019-02-09T19:28:25.870Z,67.12
2019-02-09T19:31:17.396Z,67.24
2019-02-09T19:34:21.654Z,66.78
2019-02-09T19:36:51.664Z,67.06
2019-02-09T19:39:24.295Z,67.41
2019-02-09T19:45:30.771Z,66.40
2019-02-09T19:51:30.737Z,68.35
2019-02-09T19:54:04.328Z,69.35
2019-02-09T19:56:54.686Z,69.79
2019-02-09T20:02:38.287Z,69.35
2019-02-09T20:05:46.901Z,70.07
2019-02-09T20:08:37.471Z,70.96
2019-02-09T20:11:30.390Z,71.49
2019-02-09T20:14:22.336Z,72.01
2019-02-09T20:17:13.888Z,73.02
2019-02-09T20:19:55.447Z,73.44
2019-02-09T20:22:37.799Z,73.80
2019-02-09T20:25:20.947Z,74.32
2019-02-09T20:28:05.559Z,74.99
2019-02-09T20:33:20.816Z,76.11
2019-02-09T20:35:54.549Z,76.25
2019-02-09T20:38:26.677Z,75.94
2019-02-09T20:41:20.005Z,76.36
2019-02-09T20:44:12.639Z,76.61
2019-02-09T20:47:03.331Z,77.62
2019-02-09T20:49:55.723Z,77.78
2019-02-09T20:52:45.948Z,77.81
2019-02-09T20:55:38.636Z,78.02
2019-02-09T20:58:12.522Z,77.67
2019-02-09T21:00:44.127Z,78.53
2019-02-09T21:03:16.624Z,79.01
2019-02-09T21:06:07.236Z,79.42
2019-02-09T21:08:38.609Z,79.61
2019-02-09T21:11:15.203Z,79.78
2019-02-09T21:13:47.642Z,79.74
2019-02-09T21:16:38.017Z,79.76
2019-02-09T21:19:32.275Z,79.80
2019-02-09T21:22:04.634Z,79.92
2019-02-09T21:24:54.953Z,79.85
2019-02-09T21:27:31.779Z,80.12
2019-02-09T21:30:22.315Z,80.21
2019-02-09T21:32:58.127Z,80.79
2019-02-09T21:35:48.616Z,80.35
2019-02-09T21:38:21.165Z,79.81
2019-02-09T21:40:55.127Z,80.17
2019-02-09T21:43:28.754Z,80.47
2019-02-09T21:46:19.483Z,81.05
2019-02-09T21:48:54.414Z,80.76
2019-02-09T21:51:25.963Z,80.92
2019-02-09T21:54:18.212Z,80.92
2019-02-09T21:57:27.189Z,81.36
2019-02-09T21:59:58.895Z,81.56
2019-02-09T22:02:51.255Z,81.66
2019-02-09T22:05:42.025Z,81.38
2019-02-09T22:08:32.380Z,81.55
2019-02-09T22:11:22.849Z,81.50
2019-02-09T22:13:55.511Z,81.31
2019-02-09T22:16:46.205Z,81.26
2019-02-09T22:19:38.510Z,81.26
2019-02-09T22:22:22.374Z,81.38
2019-02-09T22:25:03.835Z,82.09
2019-02-09T22:27:54.168Z,82.05
2019-02-09T22:30:28.380Z,81.58
2019-02-09T22:33:24.805Z,82.01
2019-02-09T22:36:00.043Z,82.53
2019-02-09T22:38:49.501Z,82.78
2019-02-09T22:41:21.566Z,82.53
2019-02-09T22:43:53.326Z,82.68
2019-02-09T22:46:44.231Z,82.71
2019-02-09T22:49:16.197Z,82.96
2019-02-09T22:52:07.714Z,83.63
2019-02-09T22:54:57.905Z,83.96
2019-02-09T22:58:10.747Z,84.67
2019-02-09T23:01:09.268Z,84.27
